createdAt,value
2023-07-04T00:00:17.244Z,97912.89
2023-07-04T00:03:41.916Z,97913.18
2023-07-04T00:06:45.190Z,97910.17
2023-07-04T00:09:48.378Z,97913.84
2023-07-04T00:12:51.302Z,97919.10
2023-07-04T00:15:57.280Z,97919.19
2023-07-04T00:19:00.380Z,97921.62
2023-07-04T00:22:05.379Z,97920.30
2023-07-04T00:25:09.139Z,97919.96
2023-07-04T00:28:12.056Z,97919.86
2023-07-04T00:31:21.364Z,97920.92
2023-07-04T00:34:25.039Z,97920.14
2023-07-04T00:37:30.428Z,97921.30
2023-07-04T00:40:33.448Z,97926.40
2023-07-04T00:43:47.979Z,97930.41
2023-07-04T00:46:57.821Z,97933.64
2023-07-04T00:50:08.722Z,97934.81
2023-07-04T00:53:13.924Z,97928.52
2023-07-04T00:56:17.308Z,97924.14
2023-07-04T00:59:21.520Z,97927.67
2023-07-04T01:02:27.514Z,97923.31
2023-07-04T01:05:51.663Z,97918.79
2023-07-04T01:09:02.495Z,97914.15
2023-07-04T01:12:06.618Z,97910.84
2023-07-04T01:15:10.648Z,97912.98
2023-07-04T01:18:15.456Z,97918.40
2023-07-04T01:21:23.528Z,97916.18
2023-07-04T01:24:40.383Z,97922.78
2023-07-04T01:27:45.222Z,97929.77
2023-07-04T01:30:49.023Z,97934.28
2023-07-04T01:33:53.276Z,97930.00
2023-07-04T01:36:56.415Z,97928.66
2023-07-04T01:40:01.560Z,97923.04
2023-07-04T01:43:07.171Z,97924.17
2023-07-04T01:46:10.616Z,97929.28
2023-07-04T01:49:14.002Z,97932.34
2023-07-04T01:52:17.027Z,97932.64
2023-07-04T01:55:20.227Z,97929.98
2023-07-04T01:58:23.267Z,97929.08
2023-07-04T02:01:26.408Z,97925.45
2023-07-04T02:04:29.415Z,97924.24
2023-07-04T02:07:32.750Z,97922.41
2023-07-04T02:10:35.872Z,97928.36
2023-07-04T02:13:39.782Z,97927.14
2023-07-04T02:16:42.795Z,97917.41
2023-07-04T02:19:46.039Z,97919.13
2023-07-04T02:22:49.069Z,97923.98
2023-07-04T02:25:54.227Z,97922.77
2023-07-04T02:28:57.140Z,97919.52
2023-07-04T02:32:00.115Z,97923.03
2023-07-04T02:35:03.895Z,97928.35
2023-07-04T02:38:07.263Z,97925.77
2023-07-04T02:41:11.237Z,97926.73
2023-07-04T02:44:14.324Z,97933.23
2023-07-04T02:47:19.615Z,97935.92
2023-07-04T02:50:22.921Z,97931.59
2023-07-04T02:53:26.037Z,97932.84
2023-07-04T02:56:29.739Z,97934.80
2023-07-04T02:59:32.823Z,97921.39
2023-07-04T03:02:36.783Z,97920.70
2023-07-04T03:05:48.646Z,97918.02
2023-07-04T03:08:53.084Z,97916.48
2023-07-04T03:11:56.479Z,97920.01
2023-07-04T03:14:59.862Z,97917.55
2023-07-04T03:18:06.193Z,97918.35
2023-07-04T03:21:12.226Z,97922.25
2023-07-04T03:24:15.265Z,97927.54
2023-07-04T03:27:18.382Z,97927.87
2023-07-04T03:30:21.613Z,97931.41
2023-07-04T03:33:26.644Z,97932.68
2023-07-04T03:36:29.734Z,97934.38
2023-07-04T03:39:32.696Z,97934.41
2023-07-04T03:42:37.265Z,97938.63
2023-07-04T03:45:40.287Z,97944.20
2023-07-04T03:48:44.187Z,97946.39
2023-07-04T03:51:48.014Z,97949.23
2023-07-04T03:54:51.274Z,97949.85
2023-07-04T03:57:54.243Z,97951.10
2023-07-04T04:00:57.215Z,97958.91
2023-07-04T04:04:00.308Z,97960.64
2023-07-04T04:07:03.771Z,97964.77
2023-07-04T04:10:07.458Z,97968.52
2023-07-04T04:13:11.280Z,97972.08
2023-07-04T04:16:14.463Z,97973.77
2023-07-04T04:19:17.537Z,97978.50
2023-07-04T04:22:20.550Z,97985.41
2023-07-04T04:25:23.494Z,97988.08
2023-07-04T04:28:26.402Z,97994.79
2023-07-04T04:31:30.240Z,97993.75
2023-07-04T04:34:33.287Z,97999.82
2023-07-04T04:37:36.485Z,98002.28
2023-07-04T04:40:39.850Z,98008.75
2023-07-04T04:43:42.828Z,98001.55
2023-07-04T04:46:50.085Z,97998.37
2023-07-04T04:49:53.195Z,98003.48
2023-07-04T04:52:57.256Z,97999.73
2023-07-04T04:56:01.632Z,98002.73
2023-07-04T04:59:04.544Z,98008.90
2023-07-04T05:02:07.765Z,98007.40
2023-07-04T05:05:10.823Z,98009.55
2023-07-04T05:08:13.977Z,98008.95
2023-07-04T05:11:17.947Z,98010.91
2023-07-04T05:14:21.417Z,98014.54
2023-07-04T05:17:25.334Z,98010.23
2023-07-04T05:20:28.588Z,98014.37
2023-07-04T05:23:32.699Z,98014.21
2023-07-04T05:26:36.436Z,98018.84
2023-07-04T05:29:40.064Z,98021.45
2023-07-04T05:32:45.972Z,98010.58
2023-07-04T05:35:49.412Z,98018.94
2023-07-04T05:39:02.310Z,98016.88
2023-07-04T05:42:08.198Z,98017.17
2023-07-04T05:45:11.436Z,98022.40
2023-07-04T05:48:14.511Z,98024.56
2023-07-04T05:51:19.894Z,98023.52
2023-07-04T05:54:22.872Z,98018.80
2023-07-04T05:57:31.649Z,98019.40
2023-07-04T06:00:36.145Z,98020.58
2023-07-04T06:03:40.565Z,98027.08
2023-07-04T06:06:49.668Z,98027.60
2023-07-04T06:09:52.683Z,98025.98
2023-07-04T06:12:55.658Z,98026.18
2023-07-04T06:16:00.405Z,98020.51
2023-07-04T06:19:03.759Z,98019.21
2023-07-04T06:22:08.531Z,98028.19
2023-07-04T06:25:11.433Z,98032.80
2023-07-04T06:28:14.413Z,98030.35
2023-07-04T06:31:18.465Z,98035.92
2023-07-04T06:34:21.485Z,98040.86
2023-07-04T06:37:24.451Z,98043.02
2023-07-04T06:40:27.440Z,98041.95
2023-07-04T06:43:32.829Z,98046.64
2023-07-04T06:46:35.837Z,98042.88
2023-07-04T06:49:38.842Z,98047.09
2023-07-04T06:52:41.783Z,98047.46
2023-07-04T06:55:44.958Z,98045.17
2023-07-04T06:58:51.737Z,98051.15
2023-07-04T07:01:54.985Z,98050.17
2023-07-04T07:04:58.146Z,98050.86
2023-07-04T07:08:01.128Z,98055.23
2023-07-04T07:11:11.229Z,98057.54
2023-07-04T07:14:14.382Z,98054.88
2023-07-04T07:17:17.745Z,98052.59
2023-07-04T07:20:20.785Z,98063.45
2023-07-04T07:23:23.807Z,98067.64
2023-07-04T07:26:29.542Z,98065.67
2023-07-04T07:29:33.358Z,98067.63
2023-07-04T07:32:36.480Z,98068.36
2023-07-04T07:35:39.686Z,98067.59
2023-07-04T07:38:43.136Z,98062.46
2023-07-04T07:41:48.739Z,98061.71
2023-07-04T07:44:51.871Z,98068.40
2023-07-04T07:47:57.293Z,98067.69
2023-07-04T07:51:00.556Z,98066.02
2023-07-04T07:54:04.185Z,98073.89
2023-07-04T07:57:07.880Z,98071.56
2023-07-04T08:00:13.583Z,98064.86
2023-07-04T08:03:16.720Z,98067.09
2023-07-04T08:06:36.966Z,98072.14
2023-07-04T08:09:40.200Z,98077.46
2023-07-04T08:12:43.305Z,98072.63
2023-07-04T08:15:56.130Z,98070.16
2023-07-04T08:19:00.766Z,98066.94
2023-07-04T08:22:03.918Z,98066.02
2023-07-04T08:25:07.145Z,98066.77
2023-07-04T08:28:10.243Z,98065.35
2023-07-04T08:31:13.591Z,98069.76
2023-07-04T08:34:16.750Z,98062.91
2023-07-04T08:37:20.090Z,98067.91
2023-07-04T08:40:30.528Z,98069.05
2023-07-04T08:43:46.316Z,98069.70
2023-07-04T08:46:54.637Z,98068.55
2023-07-04T08:50:11.019Z,98066.66
2023-07-04T08:53:24.017Z,98065.25
2023-07-04T08:56:37.535Z,98063.90
2023-07-04T08:59:48.166Z,98058.72
2023-07-04T09:03:14.191Z,98063.21
2023-07-04T09:06:31.880Z,98068.46
2023-07-04T09:09:55.666Z,98068.86
2023-07-04T09:13:01.416Z,98062.47
2023-07-04T09:16:19.773Z,98067.96
2023-07-04T09:19:23.082Z,98071.55
2023-07-04T09:22:26.213Z,98066.68
2023-07-04T09:25:29.746Z,98067.52
2023-07-04T09:28:37.686Z,98066.48
2023-07-04T09:31:42.558Z,98066.73
2023-07-04T09:35:12.471Z,98059.67
2023-07-04T09:38:15.799Z,98064.16
2023-07-04T09:41:19.832Z,98067.11
2023-07-04T09:44:37.428Z,98063.80
2023-07-04T09:47:46.093Z,98069.02
2023-07-04T09:50:49.174Z,98072.58
2023-07-04T09:54:08.696Z,98070.73
2023-07-04T09:57:24.113Z,98060.32
2023-07-04T10:00:28.015Z,98060.16
2023-07-04T10:03:31.213Z,98065.23
2023-07-04T10:06:36.524Z,98060.66
2023-07-04T10:09:57.511Z,98055.70
2023-07-04T10:13:01.122Z,98059.70
2023-07-04T10:16:19.443Z,98064.31
2023-07-04T10:19:24.026Z,98067.27
2023-07-04T10:22:36.442Z,98063.76
2023-07-04T10:25:39.647Z,98063.29
2023-07-04T10:28:44.116Z,98065.69
2023-07-04T10:31:49.207Z,98064.23
2023-07-04T10:34:53.388Z,98062.95
2023-07-04T10:38:04.582Z,98058.72
2023-07-04T10:41:36.103Z,98057.83
2023-07-04T10:44:42.374Z,98060.63
2023-07-04T10:47:48.904Z,98060.09
2023-07-04T10:51:02.082Z,98061.30
2023-07-04T10:54:09.183Z,98057.63
2023-07-04T10:57:57.828Z,98059.71
2023-07-04T11:01:08.477Z,98052.68
2023-07-04T11:04:26.499Z,98063.21
2023-07-04T11:07:30.130Z,98054.53
2023-07-04T11:10:39.330Z,98054.19
2023-07-04T11:13:54.016Z,98052.45
2023-07-04T11:17:05.247Z,98052.06
2023-07-04T11:20:16.188Z,98051.17
2023-07-04T11:23:22.169Z,98046.49
2023-07-04T11:26:51.308Z,98049.57
2023-07-04T11:29:59.820Z,98047.98
2023-07-04T11:33:03.420Z,98045.30
2023-07-04T11:36:15.591Z,98043.55
2023-07-04T11:39:38.629Z,98049.36
2023-07-04T11:42:45.717Z,98053.32
2023-07-04T11:45:50.232Z,98051.12
2023-07-04T11:48:55.555Z,98050.94
2023-07-04T11:52:20.651Z,98044.57
2023-07-04T11:55:33.706Z,98040.56
2023-07-04T11:58:37.038Z,98034.38
2023-07-04T12:02:04.864Z,98034.36
2023-07-04T12:05:32.523Z,98029.44
2023-07-04T12:08:51.609Z,98031.81
2023-07-04T12:11:57.481Z,98029.86
2023-07-04T12:19:04.600Z,98035.83
2023-07-04T12:22:06.860Z,98027.77
2023-07-04T12:25:19.544Z,98022.38
2023-07-04T12:28:27.504Z,98020.80
2023-07-04T12:35:10.856Z,98014.09
2023-07-04T12:37:58.859Z,98010.68
2023-07-04T12:41:04.776Z,98012.67
2023-07-04T12:47:26.241Z,98017.30
2023-07-04T12:50:31.501Z,98013.41
2023-07-04T12:53:35.197Z,98011.95
2023-07-04T12:56:42.415Z,98009.45
2023-07-04T12:59:49.443Z,98008.48
2023-07-04T13:02:52.746Z,98013.20
2023-07-04T13:05:56.262Z,98014.40
2023-07-04T13:09:00.430Z,98018.34
2023-07-04T13:12:03.547Z,98019.19
2023-07-04T13:15:12.832Z,98016.39
2023-07-04T13:18:15.876Z,98017.23
2023-07-04T13:21:27.454Z,98015.48
2023-07-04T13:27:41.549Z,98009.72
2023-07-04T13:32:58.853Z,98012.69
2023-07-04T13:34:10.440Z,98011.02
2023-07-04T13:37:13.525Z,98007.39
2023-07-04T13:40:16.823Z,98011.63
2023-07-04T13:46:25.590Z,98012.17
2023-07-04T13:49:28.584Z,98009.25
2023-07-04T13:52:33.702Z,98007.61
2023-07-04T13:55:38.389Z,98000.30
2023-07-04T13:58:41.694Z,98003.41
2023-07-04T14:07:56.391Z,97997.63
2023-07-04T14:11:08.848Z,97999.48
2023-07-04T14:16:35.746Z,97998.88
2023-07-04T14:18:31.874Z,98000.20
2023-07-04T14:21:00.826Z,97997.77
2023-07-04T14:24:07.163Z,97993.59
2023-07-04T14:27:10.562Z,97992.32
2023-07-04T14:30:14.116Z,97991.64
2023-07-04T14:33:17.239Z,97994.40
2023-07-04T14:36:20.392Z,97997.09
2023-07-04T14:39:26.184Z,97996.45
2023-07-04T14:42:31.746Z,97996.94
2023-07-04T14:45:35.423Z,97992.08
2023-07-04T14:48:39.308Z,97993.41
2023-07-04T14:51:45.700Z,97987.30
2023-07-04T14:54:48.882Z,97986.41
2023-07-04T14:57:51.835Z,97989.23
2023-07-04T15:01:01.407Z,97984.00
2023-07-04T15:04:05.459Z,97984.84
2023-07-04T15:07:08.487Z,97986.70
2023-07-04T15:10:11.543Z,97985.67
2023-07-04T15:13:14.698Z,97983.41
2023-07-04T15:16:18.817Z,97978.25
2023-07-04T15:19:25.996Z,97980.69
2023-07-04T15:22:29.046Z,97977.76
2023-07-04T15:25:32.100Z,97978.80
2023-07-04T15:28:38.649Z,97979.98
2023-07-04T15:31:41.739Z,97980.90
2023-07-04T15:34:44.927Z,97985.42
2023-07-04T15:37:48.031Z,97987.63
2023-07-04T15:40:53.867Z,97987.31
2023-07-04T15:43:57.000Z,97986.20
2023-07-04T15:47:00.453Z,97983.14
2023-07-04T15:50:03.656Z,97977.48
2023-07-04T15:53:06.656Z,97973.27
2023-07-04T15:56:12.949Z,97971.31
2023-07-04T15:59:16.600Z,97969.02
2023-07-04T16:02:19.654Z,97967.77
2023-07-04T16:05:22.950Z,97968.41
2023-07-04T16:08:27.540Z,97965.85
2023-07-04T16:11:30.582Z,97965.23
2023-07-04T16:14:33.524Z,97968.59
2023-07-04T16:17:37.772Z,97973.85
2023-07-04T16:20:45.639Z,97967.66
2023-07-04T16:23:48.685Z,97967.71
2023-07-04T16:26:51.925Z,97969.97
2023-07-04T16:29:55.063Z,97973.40
2023-07-04T16:32:58.072Z,97974.21
2023-07-04T16:36:02.541Z,97978.13
2023-07-04T16:39:05.512Z,97977.98
2023-07-04T16:42:08.498Z,97969.56
2023-07-04T16:45:11.526Z,97965.27
2023-07-04T16:48:14.867Z,97964.21
2023-07-04T16:51:17.805Z,97965.26
2023-07-04T16:54:20.755Z,97966.40
2023-07-04T16:57:23.744Z,97968.29
2023-07-04T17:00:26.829Z,97971.17
2023-07-04T17:03:31.505Z,97971.19
2023-07-04T17:06:34.535Z,97970.04
2023-07-04T17:09:37.516Z,97967.41
2023-07-04T17:12:40.448Z,97964.16
2023-07-04T17:15:43.500Z,97965.16
2023-07-04T17:18:46.532Z,97965.88
2023-07-04T17:21:49.891Z,97967.13
2023-07-04T17:25:06.944Z,97965.83
2023-07-04T17:28:16.403Z,97972.35
2023-07-04T17:31:20.050Z,97976.11
2023-07-04T17:34:24.495Z,97983.08
2023-07-04T17:37:28.391Z,97979.63
2023-07-04T17:40:32.432Z,97980.81
2023-07-04T17:43:36.748Z,97986.50
2023-07-04T17:46:40.023Z,97988.70
2023-07-04T17:49:43.066Z,97987.48
2023-07-04T17:52:47.242Z,97989.75
2023-07-04T17:55:50.553Z,97993.69
2023-07-04T17:58:54.946Z,97992.52
2023-07-04T18:01:57.939Z,97995.12
2023-07-04T18:05:00.921Z,97996.38
2023-07-04T18:08:06.572Z,97995.33
2023-07-04T18:11:22.752Z,97998.02
2023-07-04T18:14:27.273Z,98002.10
2023-07-04T18:17:31.291Z,98002.89
2023-07-04T18:20:34.437Z,98004.91
2023-07-04T18:23:37.710Z,98010.52
2023-07-04T18:26:40.746Z,98010.70
2023-07-04T18:29:43.708Z,98012.80
2023-07-04T18:32:46.711Z,98016.09
2023-07-04T18:35:50.381Z,98013.17
2023-07-04T18:38:53.670Z,98013.04
2023-07-04T18:41:56.703Z,98013.36
2023-07-04T18:44:59.595Z,98011.21
2023-07-04T18:48:02.696Z,98011.62
2023-07-04T18:51:20.534Z,98018.02
2023-07-04T18:57:29.306Z,98024.52
2023-07-04T19:00:32.288Z,98028.21
2023-07-04T19:03:35.754Z,98035.94
2023-07-04T19:06:41.067Z,98032.56
2023-07-04T19:09:44.242Z,98032.06
2023-07-04T19:12:47.276Z,98035.83
2023-07-04T19:15:59.749Z,98037.44
2023-07-04T19:19:02.733Z,98043.25
2023-07-04T19:22:08.444Z,98045.54
2023-07-04T19:25:11.539Z,98050.89
2023-07-04T19:28:17.125Z,98057.73
2023-07-04T19:31:20.384Z,98056.26
2023-07-04T19:34:24.956Z,98058.27
2023-07-04T19:37:27.949Z,98062.87
2023-07-04T19:40:30.872Z,98059.49
2023-07-04T19:43:33.892Z,98058.23
2023-07-04T19:46:37.086Z,98060.33
2023-07-04T19:49:40.635Z,98063.42
2023-07-04T19:52:43.727Z,98061.27
2023-07-04T19:55:46.607Z,98059.65
2023-07-04T19:58:51.194Z,98059.96
2023-07-04T20:01:54.221Z,98066.99
2023-07-04T20:04:57.324Z,98069.08
2023-07-04T20:08:01.357Z,98070.46
2023-07-04T20:11:04.691Z,98072.31
2023-07-04T20:14:08.593Z,98075.33
2023-07-04T20:17:11.557Z,98075.89
2023-07-04T20:20:14.622Z,98075.03
2023-07-04T20:23:17.789Z,98079.57
2023-07-04T20:26:20.970Z,98081.23
2023-07-04T20:29:24.102Z,98080.29
2023-07-04T20:32:27.122Z,98087.33
2023-07-04T20:35:30.873Z,98088.43
2023-07-04T20:38:36.225Z,98086.85
2023-07-04T20:41:39.142Z,98086.23
2023-07-04T20:44:42.171Z,98087.31
2023-07-04T20:47:45.279Z,98089.33
2023-07-04T20:50:50.114Z,98091.16
2023-07-04T20:53:53.385Z,98089.98
2023-07-04T20:56:56.369Z,98088.23
2023-07-04T20:59:59.368Z,98091.13
2023-07-04T21:03:02.338Z,98098.03
2023-07-04T21:06:06.601Z,98095.98
2023-07-04T21:09:20.077Z,98094.93
2023-07-04T21:12:23.264Z,98098.88
2023-07-04T21:15:28.802Z,98101.05
2023-07-04T21:18:33.662Z,98102.17
2023-07-04T21:21:37.164Z,98098.79
2023-07-04T21:24:40.076Z,98096.38
2023-07-04T21:27:43.809Z,98099.98
2023-07-04T21:30:49.274Z,98099.30
2023-07-04T21:33:55.559Z,98103.43
2023-07-04T21:36:58.535Z,98111.58
2023-07-04T21:40:01.678Z,98114.34
2023-07-04T21:43:06.241Z,98112.29
2023-07-04T21:46:10.832Z,98113.67
2023-07-04T21:49:13.774Z,98117.48
2023-07-04T21:52:17.369Z,98114.85
2023-07-04T21:55:20.373Z,98120.63
2023-07-04T21:58:24.261Z,98120.84
2023-07-04T22:01:27.338Z,98123.91
2023-07-04T22:04:30.798Z,98128.52
2023-07-04T22:07:33.839Z,98133.21
2023-07-04T22:10:36.838Z,98133.79
2023-07-04T22:13:43.446Z,98134.84
2023-07-04T22:16:46.482Z,98134.81
2023-07-04T22:19:49.609Z,98136.26
2023-07-04T22:22:52.689Z,98142.30
2023-07-04T22:25:56.446Z,98136.48
2023-07-04T22:28:59.701Z,98143.95
2023-07-04T22:32:03.120Z,98139.75
2023-07-04T22:35:07.543Z,98143.95
2023-07-04T22:38:10.531Z,98147.42
2023-07-04T22:41:13.478Z,98152.22
2023-07-04T22:44:17.271Z,98153.92
2023-07-04T22:47:20.246Z,98149.98
2023-07-04T22:50:23.287Z,98145.73
2023-07-04T22:53:26.696Z,98140.70
2023-07-04T22:56:29.686Z,98141.29
2023-07-04T22:59:32.587Z,98138.70
2023-07-04T23:02:35.836Z,98142.06
2023-07-04T23:05:42.155Z,98138.27
2023-07-04T23:08:45.298Z,98141.26
2023-07-04T23:11:48.227Z,98140.48
2023-07-04T23:14:51.184Z,98143.10
2023-07-04T23:17:55.503Z,98142.77
2023-07-04T23:20:58.562Z,98149.17
2023-07-04T23:24:02.084Z,98143.37
2023-07-04T23:27:05.683Z,98144.70
2023-07-04T23:30:09.083Z,98145.76
2023-07-04T23:33:11.984Z,98139.76
2023-07-04T23:36:17.938Z,98145.00
2023-07-04T23:39:20.866Z,98145.58
2023-07-04T23:42:23.964Z,98144.72
2023-07-04T23:45:27.073Z,98145.23
2023-07-04T23:48:30.230Z,98145.60
2023-07-04T23:51:33.143Z,98145.18
2023-07-04T23:54:36.090Z,98145.96
2023-07-04T23:57:39.012Z,98147.93
